Time;durP1;ratioP1;P1;durP2;ratioP2;P2;SDS_P1;SDS_P2;PMS_P1;PMS_P2;Temp;Humidity;BMP_temperature;BMP_pressure;BME280_temperature;BME280_humidity;BME280_pressure;Samples;Min_cycle;Max_cycle;Signal;HPM_P1;HPM_P2
2023/01/08 01:10:46;;;;;;;;;;;;;;;;;;5949242;23;21964;-80
2023/01/08 01:13:11;;;;;;;;;;;;;;;;;;5012474;28;19964;-79
2023/01/08 01:15:37;;;;;;;;;;;;;;;;;;5011937;28;19920;-78
2023/01/08 01:18:03;;;;;;;;;;;;;;;;;;5012265;28;19910;-79
2023/01/08 01:20:29;;;;;;;;;;;;;;;;;;5014232;28;19924;-77
2023/01/08 01:22:55;;;;;;;;;;;;;;;;;;5016105;28;19909;-79
2023/01/08 01:25:21;;;;;;;;;;;;;;;;;;4997607;28;19920;-79
2023/01/08 01:27:47;;;;;;;;;;;;;;;;;;5015723;28;20285;-79
2023/01/08 01:30:13;;;;;;;;;;;;;;;;;;4998338;28;19910;-79
2023/01/08 01:32:39;;;;;;;;;;;;;;;;;;5015864;28;19917;-79
2023/01/08 01:35:04;;;;;;;;;;;;;;;;;;5015793;28;19910;-79
2023/01/08 01:37:30;;;;;;;;;;;;;;;;;;4998162;28;19948;-79
2023/01/08 01:39:56;;;;;;;;;;;;;;;;;;4998173;28;19914;-79
2023/01/08 01:42:40;;;;;;;;;;;;;;;;;;5015495;28;19909;-78
2023/01/08 01:45:06;;;;;;;;;;;;;;;;;;4998347;28;19917;-79
2023/01/08 01:47:32;;;;;;;;;;;;;;;;;;4997799;28;20308;-78
2023/01/08 01:49:58;;;;;;;;;;;;;;;;;;4997979;28;19913;-78
2023/01/08 01:52:24;;;;;;;;;;;;;;;;;;5015338;28;19909;-79
2023/01/08 01:54:50;;;;;;;;;;;;;;;;;;5015574;28;19916;-79
2023/01/08 01:57:16;;;;;;;;;;;;;;;;;;4997944;28;19910;-79
2023/01/08 01:59:42;;;;;;;;;;;;;;;;;;5015436;28;20400;-78
2023/01/08 02:02:07;;;;;;;;;;;;;;;;;;4997843;28;19913;-78
2023/01/08 02:04:33;;;;;;;;;;;;;;;;;;4997622;28;19916;-78
2023/01/08 02:06:59;;;;;;;;;;;;;;;;;;5015340;28;19910;-77
2023/01/08 02:09:25;;;;;;;;;;;;;;;;;;5015038;28;19981;-78
2023/01/08 02:12:15;;;;;;;;;;;;;;;;;;5014884;28;20384;-79
2023/01/08 02:14:37;;;;;;;;;;;;;;;;;;5014941;28;19910;-78
2023/01/08 02:17:03;;;;;;;;;;;;;;;;;;5014576;28;19915;-79
2023/01/08 02:19:29;;;;;;;;;;;;;;;;;;4997439;28;20396;-79
2023/01/08 02:21:55;;;;;;;;;;;;;;;;;;5014802;28;19909;-77
2023/01/08 02:24:20;;;;;;;;;;;;;;;;;;4997028;28;19972;-78
2023/01/08 02:26:46;;;;;;;;;;;;;;;;;;4997273;28;19909;-78
2023/01/08 02:29:12;;;;;;;;;;;;;;;;;;4997262;28;19917;-78
2023/01/08 02:31:38;;;;;;;;;;;;;;;;;;4996663;28;20378;-78
2023/01/08 02:34:04;;;;;;;;;;;;;;;;;;4997311;28;19916;-79
2023/01/08 02:36:30;;;;;;;;;;;;;;;;;;4997084;28;19909;-78
2023/01/08 02:38:56;;;;;;;;;;;;;;;;;;5025376;28;19948;-79
2023/01/08 02:41:22;;;;;;;;;;;;;;;;;;5032172;28;19909;-79
2023/01/08 02:43:48;;;;;;;;;;;;;;;;;;5015227;28;19936;-79
2023/01/08 02:46:13;;;;;;;;;;;;;;;;;;5024270;28;19909;-78
2023/01/08 02:48:39;;;;;;;;;;;;;;;;;;5015046;28;20385;-78
2023/01/08 02:51:05;;;;;;;;;;;;;;;;;;5014667;28;19914;-78
2023/01/08 02:53:31;;;;;;;;;;;;;;;;;;5014482;28;19912;-78
2023/01/08 02:55:57;;;;;;;;;;;;;;;;;;5014207;28;20382;-79
2023/01/08 02:58:23;;;;;;;;;;;;;;;;;;4996632;28;20409;-78
2023/01/08 03:00:49;;;;;;;;;;;;;;;;;;5014273;28;19917;-78
2023/01/08 03:03:15;;;;;;;;;;;;;;;;;;5014157;28;19917;-78
2023/01/08 03:05:41;;;;;;;;;;;;;;;;;;5012900;28;20259;-78
2023/01/08 03:08:07;;;;;;;;;;;;;;;;;;4996459;28;19909;-78
2023/01/08 03:10:33;;;;;;;;;;;;;;;;;;5013840;28;19909;-78
2023/01/08 03:12:59;;;;;;;;;;;;;;;;;;4996555;28;20301;-79
2023/01/08 03:15:25;;;;;;;;;;;;;;;;;;4995871;28;20390;-78
2023/01/08 03:17:50;;;;;;;;;;;;;;;;;;5013824;28;19913;-78
2023/01/08 03:20:17;;;;;;;;;;;;;;;;;;5013791;28;20378;-78
2023/01/08 03:22:42;;;;;;;;;;;;;;;;;;4996206;28;20390;-78
2023/01/08 03:25:08;;;;;;;;;;;;;;;;;;4996079;28;19920;-79
2023/01/08 03:27:34;;;;;;;;;;;;;;;;;;4996132;28;19909;-79
2023/01/08 03:30:00;;;;;;;;;;;;;;;;;;5013766;28;20289;-79
2023/01/08 03:32:26;;;;;;;;;;;;;;;;;;5013713;28;19909;-78
2023/01/08 03:34:52;;;;;;;;;;;;;;;;;;5013579;28;19910;-78
2023/01/08 03:37:18;;;;;;;;;;;;;;;;;;5013424;28;20029;-78
2023/01/08 03:39:44;;;;;;;;;;;;;;;;;;4995910;28;19913;-78
2023/01/08 03:42:10;;;;;;;;;;;;;;;;;;4995993;28;20374;-78
2023/01/08 03:44:36;;;;;;;;;;;;;;;;;;4994784;28;19909;-78
2023/01/08 03:47:01;;;;;;;;;;;;;;;;;;5012655;28;19909;-78
2023/01/08 03:49:27;;;;;;;;;;;;;;;;;;4995720;28;20382;-78
2023/01/08 03:51:53;;;;;;;;;;;;;;;;;;5013222;28;19913;-78
2023/01/08 03:54:19;;;;;;;;;;;;;;;;;;4995609;28;19979;-78
2023/01/08 03:56:45;;;;;;;;;;;;;;;;;;5013167;28;19910;-78
2023/01/08 03:59:11;;;;;;;;;;;;;;;;;;4995173;28;19914;-77
2023/01/08 04:01:37;;;;;;;;;;;;;;;;;;4995485;28;19909;-78
2023/01/08 04:04:03;;;;;;;;;;;;;;;;;;4995503;28;19906;-78
2023/01/08 04:06:28;;;;;;;;;;;;;;;;;;5013161;28;19917;-78
2023/01/08 04:08:54;;;;;;;;;;;;;;;;;;4995275;28;20398;-79
2023/01/08 04:11:20;;;;;;;;;;;;;;;;;;5012814;28;19924;-79
2023/01/08 04:13:46;;;;;;;;;;;;;;;;;;4995489;28;19952;-77
2023/01/08 04:16:12;;;;;;;;;;;;;;;;;;4995263;28;19909;-79
2023/01/08 04:18:38;;;;;;;;;;;;;;;;;;4995201;28;19956;-78
2023/01/08 04:21:04;;;;;;;;;;;;;;;;;;5012310;28;19910;-78
2023/01/08 04:23:30;;;;;;;;;;;;;;;;;;5012828;28;20370;-78
2023/01/08 04:25:56;;;;;;;;;;;;;;;;;;4995339;28;19910;-78
2023/01/08 04:28:23;;;;;;;;;;;;;;;;;;4995110;28;19914;-79
2023/01/08 04:30:49;;;;;;;;;;;;;;;;;;5012792;28;19992;-78
2023/01/08 04:33:15;;;;;;;;;;;;;;;;;;5012806;28;20490;-78
2023/01/08 04:35:41;;;;;;;;;;;;;;;;;;5012660;28;19913;-78
2023/01/08 04:38:07;;;;;;;;;;;;;;;;;;5012661;28;19909;-78
2023/01/08 04:40:32;;;;;;;;;;;;;;;;;;4994997;28;19920;-78
2023/01/08 04:42:58;;;;;;;;;;;;;;;;;;4994873;28;19913;-78
2023/01/08 04:45:24;;;;;;;;;;;;;;;;;;5012505;28;19989;-78
2023/01/08 04:47:50;;;;;;;;;;;;;;;;;;5012405;28;19909;-79
2023/01/08 04:50:16;;;;;;;;;;;;;;;;;;5012740;28;19995;-78
2023/01/08 04:52:42;;;;;;;;;;;;;;;;;;5012546;28;20378;-78
2023/01/08 04:55:08;;;;;;;;;;;;;;;;;;4996468;28;19913;-78
2023/01/08 04:57:34;;;;;;;;;;;;;;;;;;5016115;28;19913;-78
2023/01/08 05:00:00;;;;;;;;;;;;;;;;;;4998598;28;20393;-78
2023/01/08 05:02:25;;;;;;;;;;;;;;;;;;4998728;28;19913;-77
2023/01/08 05:04:51;;;;;;;;;;;;;;;;;;4998581;28;19914;-78
2023/01/08 05:07:17;;;;;;;;;;;;;;;;;;4998633;28;20410;-78
2023/01/08 05:09:43;;;;;;;;;;;;;;;;;;4998643;28;19910;-78
2023/01/08 05:12:09;;;;;;;;;;;;;;;;;;5016053;28;20341;-79
2023/01/08 05:14:35;;;;;;;;;;;;;;;;;;4998260;28;19955;-79
2023/01/08 05:17:01;;;;;;;;;;;;;;;;;;4998372;28;19910;-78
2023/01/08 05:19:27;;;;;;;;;;;;;;;;;;5015692;28;19913;-78
2023/01/08 05:21:53;;;;;;;;;;;;;;;;;;4998164;28;19910;-78
2023/01/08 05:24:18;;;;;;;;;;;;;;;;;;5015807;28;19920;-78
2023/01/08 05:26:44;;;;;;;;;;;;;;;;;;5015724;28;19909;-78
2023/01/08 05:29:10;;;;;;;;;;;;;;;;;;4998115;28;19916;-78
2023/01/08 05:31:36;;;;;;;;;;;;;;;;;;4997910;28;19913;-78
2023/01/08 05:34:02;;;;;;;;;;;;;;;;;;4997917;28;19910;-78
2023/01/08 05:36:29;;;;;;;;;;;;;;;;;;5015442;28;20278;-78
2023/01/08 05:38:55;;;;;;;;;;;;;;;;;;4997779;28;19916;-78
2023/01/08 05:41:21;;;;;;;;;;;;;;;;;;4998182;28;19909;-78
2023/01/08 05:43:47;;;;;;;;;;;;;;;;;;4998182;28;19984;-78
2023/01/08 05:46:13;;;;;;;;;;;;;;;;;;4997687;28;19909;-78
2023/01/08 05:48:39;;;;;;;;;;;;;;;;;;4997478;28;19917;-78
2023/01/08 05:51:05;;;;;;;;;;;;;;;;;;4997644;28;20297;-78
2023/01/08 05:53:31;;;;;;;;;;;;;;;;;;4997602;28;19957;-78
2023/01/08 05:55:57;;;;;;;;;;;;;;;;;;5015250;28;19916;-78
2023/01/08 05:58:23;;;;;;;;;;;;;;;;;;4997108;28;20004;-78
2023/01/08 06:00:49;;;;;;;;;;;;;;;;;;4997602;28;20289;-78
2023/01/08 06:03:15;;;;;;;;;;;;;;;;;;4997478;28;19910;-78
2023/01/08 06:05:41;;;;;;;;;;;;;;;;;;4997151;28;19999;-78
2023/01/08 06:08:07;;;;;;;;;;;;;;;;;;5014132;28;19909;-78
2023/01/08 06:10:33;;;;;;;;;;;;;;;;;;4997400;28;19916;-78
2023/01/08 06:12:58;;;;;;;;;;;;;;;;;;5015586;28;20374;-79
2023/01/08 06:15:24;;;;;;;;;;;;;;;;;;5014818;28;20380;-78
2023/01/08 06:17:50;;;;;;;;;;;;;;;;;;4996855;28;19910;-77
2023/01/08 06:20:16;;;;;;;;;;;;;;;;;;5014703;28;19922;-78
2023/01/08 06:22:42;;;;;;;;;;;;;;;;;;5014462;28;19916;-78
2023/01/08 06:25:08;;;;;;;;;;;;;;;;;;4998456;28;20003;-79
2023/01/08 06:27:34;;;;;;;;;;;;;;;;;;5014349;28;19910;-78
2023/01/08 06:30:00;;;;;;;;;;;;;;;;;;5014975;28;19948;-78
2023/01/08 06:32:26;;;;;;;;;;;;;;;;;;4997154;28;19910;-78
2023/01/08 06:34:51;;;;;;;;;;;;;;;;;;4997131;28;20366;-79
2023/01/08 06:37:17;;;;;;;;;;;;;;;;;;5014752;28;19916;-79
2023/01/08 06:39:43;;;;;;;;;;;;;;;;;;5014618;28;19913;-78
2023/01/08 06:42:09;;;;;;;;;;;;;;;;;;4997182;28;19972;-78
2023/01/08 06:44:35;;;;;;;;;;;;;;;;;;4997002;28;20006;-78
2023/01/08 06:47:01;;;;;;;;;;;;;;;;;;5014598;28;20610;-79
2023/01/08 06:49:27;;;;;;;;;;;;;;;;;;4996995;28;19978;-78
2023/01/08 06:51:53;;;;;;;;;;;;;;;;;;4996799;28;19916;-79
2023/01/08 06:54:19;;;;;;;;;;;;;;;;;;5014663;28;20362;-79
2023/01/08 06:56:45;;;;;;;;;;;;;;;;;;4997009;28;19916;-79
2023/01/08 06:59:11;;;;;;;;;;;;;;;;;;4996906;28;19920;-79
2023/01/08 07:01:36;;;;;;;;;;;;;;;;;;5014346;28;19910;-78
2023/01/08 07:04:02;;;;;;;;;;;;;;;;;;4997164;28;19917;-79
2023/01/08 07:06:28;;;;;;;;;;;;;;;;;;4996651;28;19914;-79
2023/01/08 07:08:54;;;;;;;;;;;;;;;;;;4996739;28;19910;-79
2023/01/08 07:11:20;;;;;;;;;;;;;;;;;;5014727;23;19934;-79
2023/01/08 07:13:46;;;;;;;;;;;;;;;;;;4997756;28;19967;-80
2023/01/08 07:16:12;;;;;;;;;;;;;;;;;;4997253;28;19909;-80
2023/01/08 07:18:38;;;;;;;;;;;;;;;;;;4997277;28;20381;-79
2023/01/08 07:21:04;;;;;;;;;;;;;;;;;;4997607;28;19928;-80
2023/01/08 07:23:30;;;;;;;;;;;;;;;;;;4997308;28;19909;-80
2023/01/08 07:25:55;;;;;;;;;;;;;;;;;;4997636;28;20381;-79
2023/01/08 07:28:21;;;;;;;;;;;;;;;;;;5015008;28;19960;-79
2023/01/08 07:30:47;;;;;;;;;;;;;;;;;;4997734;28;19996;-79
2023/01/08 07:33:13;;;;;;;;;;;;;;;;;;5014437;28;19914;-80
2023/01/08 07:35:39;;;;;;;;;;;;;;;;;;5014650;28;19910;-80
2023/01/08 07:38:05;;;;;;;;;;;;;;;;;;5014814;28;20345;-80
2023/01/08 07:40:31;;;;;;;;;;;;;;;;;;4996942;28;19918;-82
2023/01/08 07:42:57;;;;;;;;;;;;;;;;;;5014319;28;19917;-80
2023/01/08 07:45:23;;;;;;;;;;;;;;;;;;5014438;28;19909;-80
2023/01/08 07:47:48;;;;;;;;;;;;;;;;;;5014242;28;20059;-81
2023/01/08 07:50:14;;;;;;;;;;;;;;;;;;5013909;28;19977;-80
2023/01/08 07:52:40;;;;;;;;;;;;;;;;;;4995776;28;19953;-80
2023/01/08 07:55:06;;;;;;;;;;;;;;;;;;4979136;28;19920;-82
2023/01/08 07:57:32;;;;;;;;;;;;;;;;;;4977695;28;20008;-83
2023/01/08 07:59:58;;;;;;;;;;;;;;;;;;4994872;28;20370;-83
2023/01/08 08:02:24;;;;;;;;;;;;;;;;;;4975965;28;19916;-82
2023/01/08 08:04:50;;;;;;;;;;;;;;;;;;4976563;28;19910;-82
2023/01/08 08:07:16;;;;;;;;;;;;;;;;;;4976733;28;20371;-82
2023/01/08 08:09:42;;;;;;;;;;;;;;;;;;4977253;28;19971;-82
2023/01/08 08:12:07;;;;;;;;;;;;;;;;;;4976862;28;19969;-81
2023/01/08 08:14:33;;;;;;;;;;;;;;;;;;4976771;28;19910;-84
2023/01/08 08:16:59;;;;;;;;;;;;;;;;;;4976692;28;19909;-81
2023/01/08 08:19:25;;;;;;;;;;;;;;;;;;4976836;28;20445;-81
2023/01/08 08:21:51;;;;;;;;;;;;;;;;;;4978626;28;19914;-81
2023/01/08 08:24:17;;;;;;;;;;;;;;;;;;4978859;28;19910;-84
2023/01/08 08:26:43;;;;;;;;;;;;;;;;;;4977398;28;19909;-81
2023/01/08 08:29:09;;;;;;;;;;;;;;;;;;4976630;28;19917;-82
2023/01/08 08:31:34;;;;;;;;;;;;;;;;;;4980824;28;20387;-82
2023/01/08 08:34:00;;;;;;;;;;;;;;;;;;4980931;28;19913;-82
2023/01/08 08:36:26;;;;;;;;;;;;;;;;;;4980760;28;19910;-83
2023/01/08 08:38:52;;;;;;;;;;;;;;;;;;4980549;28;19965;-82
2023/01/08 08:41:18;;;;;;;;;;;;;;;;;;4980297;28;19909;-82
2023/01/08 08:43:44;;;;;;;;;;;;;;;;;;4980426;28;19963;-81
2023/01/08 08:46:10;;;;;;;;;;;;;;;;;;4981075;28;20380;-82
2023/01/08 08:48:36;;;;;;;;;;;;;;;;;;4981969;28;20008;-85
2023/01/08 08:51:02;;;;;;;;;;;;;;;;;;4980342;28;19960;-81
2023/01/08 08:53:28;;;;;;;;;;;;;;;;;;4980799;28;19917;-82
2023/01/08 08:55:53;;;;;;;;;;;;;;;;;;4980421;28;19992;-81
2023/01/08 08:58:19;;;;;;;;;;;;;;;;;;4980475;28;19960;-82
2023/01/08 09:00:45;;;;;;;;;;;;;;;;;;4980922;28;19914;-82
2023/01/08 09:03:11;;;;;;;;;;;;;;;;;;4980705;28;20603;-82
2023/01/08 09:05:37;;;;;;;;;;;;;;;;;;4980340;28;19910;-83
2023/01/08 09:08:03;;;;;;;;;;;;;;;;;;4979935;28;20285;-81
2023/01/08 09:10:29;;;;;;;;;;;;;;;;;;4980397;28;19948;-82
2023/01/08 09:12:55;;;;;;;;;;;;;;;;;;4980336;28;19918;-82
2023/01/08 09:15:21;;;;;;;;;;;;;;;;;;4980229;28;19921;-83
2023/01/08 09:17:47;;;;;;;;;;;;;;;;;;4997524;28;19894;-81
2023/01/08 09:20:13;;;;;;;;;;;;;;;;;;4997899;28;19914;-82
2023/01/08 09:22:38;;;;;;;;;;;;;;;;;;4997009;28;19910;-83
2023/01/08 09:25:04;;;;;;;;;;;;;;;;;;4980176;28;19910;-82
2023/01/08 09:27:30;;;;;;;;;;;;;;;;;;4980227;28;20260;-83
2023/01/08 09:29:56;;;;;;;;;;;;;;;;;;4980472;28;19914;-82
2023/01/08 09:32:22;;;;;;;;;;;;;;;;;;4980163;28;19910;-82
2023/01/08 09:34:48;;;;;;;;;;;;;;;;;;4986132;28;19945;-81
2023/01/08 09:37:14;;;;;;;;;;;;;;;;;;4999562;28;19960;-82
2023/01/08 09:42:10;;;;;;;;;;;;;;;;;;5015907;28;19909;-82
2023/01/08 09:44:35;;;;;;;;;;;;;;;;;;4998720;28;19956;-81
2023/01/08 09:47:01;;;;;;;;;;;;;;;;;;4999249;28;20381;-82
2023/01/08 09:49:28;;;;;;;;;;;;;;;;;;4999228;28;19917;-81
2023/01/08 09:51:54;;;;;;;;;;;;;;;;;;4999155;28;19910;-81
2023/01/08 09:54:20;;;;;;;;;;;;;;;;;;4999293;28;19913;-83
2023/01/08 09:56:46;;;;;;;;;;;;;;;;;;4998832;28;19910;-83
2023/01/08 09:59:12;;;;;;;;;;;;;;;;;;5000579;28;19915;-86
2023/01/08 10:01:38;;;;;;;;;;;;;;;;;;5010980;28;19923;-82
2023/01/08 10:04:04;;;;;;;;;;;;;;;;;;4998974;28;19913;-82
2023/01/08 10:06:30;;;;;;;;;;;;;;;;;;4998988;28;19936;-84
2023/01/08 10:08:56;;;;;;;;;;;;;;;;;;4999191;28;19948;-84
2023/01/08 10:11:22;;;;;;;;;;;;;;;;;;4998972;28;19913;-82
2023/01/08 10:13:48;;;;;;;;;;;;;;;;;;4998986;28;19909;-82
2023/01/08 10:16:13;;;;;;;;;;;;;;;;;;4998828;28;19909;-83
2023/01/08 10:18:40;;;;;;;;;;;;;;;;;;4998752;28;19909;-83
2023/01/08 10:21:06;;;;;;;;;;;;;;;;;;4998683;28;19914;-83
2023/01/08 10:23:31;;;;;;;;;;;;;;;;;;4999139;28;19913;-82
2023/01/08 10:25:57;;;;;;;;;;;;;;;;;;4999093;28;19905;-82
2023/01/08 10:28:23;;;;;;;;;;;;;;;;;;4999075;28;19917;-82
2023/01/08 10:30:49;;;;;;;;;;;;;;;;;;4999922;28;19941;-81
2023/01/08 10:33:15;;;;;;;;;;;;;;;;;;4998800;28;19920;-83
2023/01/08 10:35:41;;;;;;;;;;;;;;;;;;4998719;28;19932;-82
2023/01/08 10:38:07;;;;;;;;;;;;;;;;;;4998889;28;19910;-83
2023/01/08 10:40:33;;;;;;;;;;;;;;;;;;5016525;28;20251;-82
2023/01/08 10:42:59;;;;;;;;;;;;;;;;;;4998438;28;20318;-81
2023/01/08 10:45:25;;;;;;;;;;;;;;;;;;4996989;28;19910;-79
2023/01/08 10:47:50;;;;;;;;;;;;;;;;;;4996337;28;19956;-82
2023/01/08 10:50:16;;;;;;;;;;;;;;;;;;4998012;28;20320;-82
2023/01/08 10:52:42;;;;;;;;;;;;;;;;;;4997668;28;20399;-81
2023/01/08 10:55:08;;;;;;;;;;;;;;;;;;5015818;28;19913;-83
2023/01/08 10:57:34;;;;;;;;;;;;;;;;;;4998090;28;19910;-83
2023/01/08 11:00:00;;;;;;;;;;;;;;;;;;4998283;28;19909;-83
2023/01/08 11:02:26;;;;;;;;;;;;;;;;;;4998248;28;20008;-82
2023/01/08 11:04:52;;;;;;;;;;;;;;;;;;4997035;28;19916;-84
2023/01/08 11:07:19;;;;;;;;;;;;;;;;;;5015189;28;19910;-83
2023/01/08 11:09:45;;;;;;;;;;;;;;;;;;5015521;28;19959;-82
2023/01/08 11:12:11;;;;;;;;;;;;;;;;;;4997577;28;19929;-82
2023/01/08 11:14:38;;;;;;;;;;;;;;;;;;4997670;28;19910;-82
2023/01/08 11:17:04;;;;;;;;;;;;;;;;;;4998743;28;19910;-82
2023/01/08 11:19:30;;;;;;;;;;;;;;;;;;5001181;28;19914;-82
2023/01/08 11:21:56;;;;;;;;;;;;;;;;;;4998627;28;20362;-82
2023/01/08 11:24:22;;;;;;;;;;;;;;;;;;4997498;28;20382;-82
2023/01/08 11:26:48;;;;;;;;;;;;;;;;;;4997914;28;20274;-83
2023/01/08 11:29:14;;;;;;;;;;;;;;;;;;4997972;28;20583;-82
2023/01/08 11:31:40;;;;;;;;;;;;;;;;;;4997784;28;19956;-83
2023/01/08 11:34:05;;;;;;;;;;;;;;;;;;4997926;28;19910;-82
2023/01/08 11:36:31;;;;;;;;;;;;;;;;;;4997869;28;19956;-83
2023/01/08 11:38:57;;;;;;;;;;;;;;;;;;5017516;28;19921;-82
2023/01/08 11:41:23;;;;;;;;;;;;;;;;;;5016891;28;19910;-84
2023/01/08 11:43:49;;;;;;;;;;;;;;;;;;5015224;28;19936;-82
2023/01/08 11:46:15;;;;;;;;;;;;;;;;;;5016983;28;19910;-87
2023/01/08 11:48:41;;;;;;;;;;;;;;;;;;5017023;28;19941;-85
2023/01/08 11:51:07;;;;;;;;;;;;;;;;;;5016779;28;19909;-86
2023/01/08 11:53:33;;;;;;;;;;;;;;;;;;5014529;28;19917;-84
2023/01/08 11:55:58;;;;;;;;;;;;;;;;;;5015550;28;19917;-83
2023/01/08 11:58:24;;;;;;;;;;;;;;;;;;5015314;28;20436;-82
2023/01/08 12:00:50;;;;;;;;;;;;;;;;;;4999196;28;19913;-83
2023/01/08 12:03:16;;;;;;;;;;;;;;;;;;4999449;28;19916;-85
2023/01/08 12:05:42;;;;;;;;;;;;;;;;;;5015046;28;20367;-84
2023/01/08 12:08:08;;;;;;;;;;;;;;;;;;4997645;28;19910;-82
2023/01/08 12:10:36;;;;;;;;;;;;;;;;;;4997882;28;20386;-82
2023/01/08 12:13:02;;;;;;;;;;;;;;;;;;4997972;28;19960;-83
2023/01/08 12:15:28;;;;;;;;;;;;;;;;;;4996627;28;19975;-82
2023/01/08 12:17:54;;;;;;;;;;;;;;;;;;5014711;28;19932;-83
2023/01/08 12:20:20;;;;;;;;;;;;;;;;;;4997087;28;20366;-82
2023/01/08 12:22:46;;;;;;;;;;;;;;;;;;4996895;28;19964;-82
2023/01/08 12:25:12;;;;;;;;;;;;;;;;;;5014643;28;19914;-82
2023/01/08 12:27:38;;;;;;;;;;;;;;;;;;4996913;28;20461;-82
2023/01/08 12:30:03;;;;;;;;;;;;;;;;;;4997014;28;19939;-82
2023/01/08 12:32:29;;;;;;;;;;;;;;;;;;4997004;28;20356;-82
2023/01/08 12:34:56;;;;;;;;;;;;;;;;;;5014333;28;19909;-83
2023/01/08 12:37:21;;;;;;;;;;;;;;;;;;4996649;28;19964;-81
2023/01/08 12:39:47;;;;;;;;;;;;;;;;;;4996636;28;20019;-83
2023/01/08 12:42:13;;;;;;;;;;;;;;;;;;4996751;28;19915;-82
2023/01/08 12:44:39;;;;;;;;;;;;;;;;;;4996927;28;20011;-82
2023/01/08 12:47:05;;;;;;;;;;;;;;;;;;4996534;28;19932;-83
2023/01/08 12:49:31;;;;;;;;;;;;;;;;;;4996613;28;20387;-82
2023/01/08 12:51:57;;;;;;;;;;;;;;;;;;4996727;28;19959;-82
2023/01/08 12:54:23;;;;;;;;;;;;;;;;;;4996887;28;19910;-81
2023/01/08 12:56:49;;;;;;;;;;;;;;;;;;4996753;28;20397;-82
2023/01/08 12:59:15;;;;;;;;;;;;;;;;;;4996433;28;19910;-83
2023/01/08 13:01:41;;;;;;;;;;;;;;;;;;4996394;28;19913;-82
2023/01/08 13:04:06;;;;;;;;;;;;;;;;;;4995931;28;20008;-82
2023/01/08 13:06:32;;;;;;;;;;;;;;;;;;4995964;28;19920;-81
2023/01/08 13:08:58;;;;;;;;;;;;;;;;;;4995959;28;19915;-82
2023/01/08 13:39:58;;;;;;;;;;;;;;;;;;5532278;23;19947;-81
2023/01/08 13:42:27;;;;;;;;;;;;;;;;;;5012530;28;19909;-83
2023/01/08 13:44:53;;;;;;;;;;;;;;;;;;5010513;28;19920;-82
2023/01/08 13:47:19;;;;;;;;;;;;;;;;;;5028767;28;20374;-82
2023/01/08 13:49:45;;;;;;;;;;;;;;;;;;5004805;28;20294;-81
2023/01/08 13:52:10;;;;;;;;;;;;;;;;;;5003846;28;19909;-82
2023/01/08 13:54:36;;;;;;;;;;;;;;;;;;5006431;28;19909;-82
2023/01/08 13:57:04;;;;;;;;;;;;;;;;;;5007968;28;20369;-81
2023/01/08 13:59:30;;;;;;;;;;;;;;;;;;5029114;28;20483;-82
2023/01/08 14:09:43;;;;;;;;;;;;;;;;;;5595200;23;1894991;-82
2023/01/08 14:17:21;;;;;;;;;;;;;;;;;;4993476;28;20379;-76
2023/01/08 14:19:47;;;;;;;;;;;;;;;;;;4968669;28;19929;-77
2023/01/08 14:22:13;;;;;;;;;;;;;;;;;;4990449;28;19909;-77
2023/01/08 14:24:39;;;;;;;;;;;;;;;;;;4973221;28;19910;-77
2023/01/08 14:27:05;;;;;;;;;;;;;;;;;;4976868;28;19914;-77
2023/01/08 14:29:33;;;;;;;;;;;;;;;;;;4977297;28;20362;-77
2023/01/08 14:31:59;;;;;;;;;;;;;;;;;;4977627;28;19914;-79
2023/01/08 14:34:25;;;;;;;;;;;;;;;;;;4977440;28;19916;-76
2023/01/08 14:36:51;;;;;;;;;;;;;;;;;;4977805;28;19913;-79
2023/01/08 14:39:17;;;;;;;;;;;;;;;;;;4982216;28;19965;-80
2023/01/08 14:44:35;;;;;;;;;;;;;;;;;;5176789;23;19933;-80
2023/01/08 14:47:05;;;;;;;;;;;;;;;;;;5692000;23;19926;-80
2023/01/08 14:49:31;;;;;;;;;;;;;;;;;;5003279;28;19910;-83
2023/01/08 14:51:57;;;;;;;;;;;;;;;;;;4997559;28;20008;-79
2023/01/08 14:54:22;;;;;;;;;;;;;;;;;;5015030;28;19978;-77
2023/01/08 14:56:48;;;;;;;;;;;;;;;;;;4996810;28;20003;-78
2023/01/08 14:59:14;;;;;;;;;;;;;;;;;;5014503;28;20004;-78
2023/01/08 15:01:40;;;;;;;;;;;;;;;;;;4996553;28;19909;-78
2023/01/08 15:04:07;;;;;;;;;;;;;;;;;;5014119;28;19916;-78
2023/01/08 15:06:32;;;;;;;;;;;;;;;;;;4997131;28;20333;-79
2023/01/08 15:08:58;;;;;;;;;;;;;;;;;;4996817;28;19955;-79
2023/01/08 15:11:24;;;;;;;;;;;;;;;;;;5014034;28;19909;-79
2023/01/08 15:13:50;;;;;;;;;;;;;;;;;;5013985;28;19964;-80
2023/01/08 15:16:16;;;;;;;;;;;;;;;;;;4996113;28;20301;-78
2023/01/08 15:18:42;;;;;;;;;;;;;;;;;;4995975;28;19910;-78
2023/01/08 15:21:08;;;;;;;;;;;;;;;;;;4995920;28;20350;-78
2023/01/08 15:23:34;;;;;;;;;;;;;;;;;;5011511;28;20003;-78
2023/01/08 15:26:00;;;;;;;;;;;;;;;;;;5013689;28;19909;-79
2023/01/08 15:28:26;;;;;;;;;;;;;;;;;;5013631;28;19909;-78
2023/01/08 15:30:52;;;;;;;;;;;;;;;;;;4994582;28;19917;-77
2023/01/08 15:33:18;;;;;;;;;;;;;;;;;;5013730;28;19931;-80
2023/01/08 15:35:44;;;;;;;;;;;;;;;;;;5319154;23;20008;-79
2023/01/08 15:38:11;;;;;;;;;;;;;;;;;;4976568;28;19910;-79
2023/01/08 15:40:37;;;;;;;;;;;;;;;;;;4976700;28;20327;-80
2023/01/08 15:43:08;;;;;;;;;;;;;;;;;;4993954;28;19964;-79
2023/01/08 15:45:34;;;;;;;;;;;;;;;;;;4976676;28;20434;-79
2023/01/08 15:48:00;;;;;;;;;;;;;;;;;;4980062;28;19945;-81
2023/01/08 15:50:26;;;;;;;;;;;;;;;;;;4994737;28;19925;-80
2023/01/08 15:52:52;;;;;;;;;;;;;;;;;;4994631;28;19937;-79
2023/01/08 15:55:18;;;;;;;;;;;;;;;;;;4993577;28;20286;-79
2023/01/08 15:57:44;;;;;;;;;;;;;;;;;;4993394;28;19910;-79
2023/01/08 16:00:10;;;;;;;;;;;;;;;;;;4994235;28;20429;-76
2023/01/08 16:02:36;;;;;;;;;;;;;;;;;;4976023;28;19936;-77
2023/01/08 16:05:02;;;;;;;;;;;;;;;;;;4993290;28;20367;-77
2023/01/08 16:07:27;;;;;;;;;;;;;;;;;;4975677;28;19913;-78
2023/01/08 16:09:53;;;;;;;;;;;;;;;;;;4993276;28;19952;-78
2023/01/08 16:12:19;;;;;;;;;;;;;;;;;;4993162;28;20409;-77
2023/01/08 16:14:45;;;;;;;;;;;;;;;;;;4975717;28;19913;-77
2023/01/08 16:17:11;;;;;;;;;;;;;;;;;;4974979;28;19910;-77
2023/01/08 16:19:37;;;;;;;;;;;;;;;;;;4992597;28;19928;-77
2023/01/08 16:22:03;;;;;;;;;;;;;;;;;;4975752;28;19910;-77
2023/01/08 16:24:29;;;;;;;;;;;;;;;;;;4975725;28;19916;-77
2023/01/08 16:26:55;;;;;;;;;;;;;;;;;;4992959;28;20005;-77
2023/01/08 16:29:21;;;;;;;;;;;;;;;;;;4993029;28;20385;-77
2023/01/08 16:31:47;;;;;;;;;;;;;;;;;;4982324;28;19913;-79
2023/01/08 16:34:12;;;;;;;;;;;;;;;;;;4986522;28;19910;-79
2023/01/08 16:36:38;;;;;;;;;;;;;;;;;;4986664;28;19918;-78
2023/01/08 16:39:04;;;;;;;;;;;;;;;;;;4982691;28;19910;-77
2023/01/08 16:41:30;;;;;;;;;;;;;;;;;;4975835;28;19910;-77
2023/01/08 16:43:56;;;;;;;;;;;;;;;;;;4993065;28;19921;-77
2023/01/08 16:46:22;;;;;;;;;;;;;;;;;;4992966;28;20382;-77
2023/01/08 16:48:48;;;;;;;;;;;;;;;;;;4975552;28;19916;-77
2023/01/08 16:51:14;;;;;;;;;;;;;;;;;;4977136;28;19996;-78
2023/01/08 16:53:40;;;;;;;;;;;;;;;;;;4996937;28;20013;-78
2023/01/08 16:56:06;;;;;;;;;;;;;;;;;;4996626;28;19977;-78
2023/01/08 16:58:33;;;;;;;;;;;;;;;;;;4979123;28;19909;-77
2023/01/08 17:00:59;;;;;;;;;;;;;;;;;;4996653;28;19913;-77
2023/01/08 17:03:25;;;;;;;;;;;;;;;;;;4996539;28;19910;-77
2023/01/08 17:05:51;;;;;;;;;;;;;;;;;;4996479;28;20298;-77
2023/01/08 17:08:18;;;;;;;;;;;;;;;;;;4996460;28;19914;-77
2023/01/08 17:10:44;;;;;;;;;;;;;;;;;;4978952;28;20012;-77
2023/01/08 17:13:10;;;;;;;;;;;;;;;;;;4978950;28;20012;-77
2023/01/08 17:15:37;;;;;;;;;;;;;;;;;;4999894;28;20059;-78
2023/01/08 17:18:03;;;;;;;;;;;;;;;;;;5016767;28;19910;-79
2023/01/08 17:20:29;;;;;;;;;;;;;;;;;;5016872;28;19913;-78
2023/01/08 17:22:55;;;;;;;;;;;;;;;;;;4998539;28;19917;-78
2023/01/08 17:25:21;;;;;;;;;;;;;;;;;;4998338;28;19909;-78
2023/01/08 17:27:46;;;;;;;;;;;;;;;;;;4998462;28;20282;-79
2023/01/08 17:30:13;;;;;;;;;;;;;;;;;;5016102;28;19996;-79
2023/01/08 17:32:39;;;;;;;;;;;;;;;;;;4998926;28;19914;-81
2023/01/08 17:35:05;;;;;;;;;;;;;;;;;;5002910;28;19977;-80
2023/01/08 17:37:31;;;;;;;;;;;;;;;;;;4998413;28;19910;-80
2023/01/08 17:39:57;;;;;;;;;;;;;;;;;;4998234;28;19913;-79
2023/01/08 17:42:23;;;;;;;;;;;;;;;;;;5015701;28;19909;-80
2023/01/08 17:44:49;;;;;;;;;;;;;;;;;;4998071;28;19917;-79
2023/01/08 17:47:14;;;;;;;;;;;;;;;;;;4998189;28;19910;-80
2023/01/08 17:49:40;;;;;;;;;;;;;;;;;;5022072;28;19963;-79
2023/01/08 17:52:08;;;;;;;;;;;;;;;;;;5015489;28;20383;-78
2023/01/08 17:54:34;;;;;;;;;;;;;;;;;;4997641;28;19945;-78
2023/01/08 17:57:00;;;;;;;;;;;;;;;;;;5003101;28;19916;-80
2023/01/08 17:59:26;;;;;;;;;;;;;;;;;;5037916;28;20032;-82
2023/01/08 18:01:52;;;;;;;;;;;;;;;;;;5015000;28;19949;-82
2023/01/08 18:04:18;;;;;;;;;;;;;;;;;;5013166;28;19909;-82
2023/01/08 18:06:44;;;;;;;;;;;;;;;;;;5022462;28;19920;-82
2023/01/08 18:09:11;;;;;;;;;;;;;;;;;;5023407;28;19902;-82
2023/01/08 18:11:37;;;;;;;;;;;;;;;;;;5022724;28;19910;-82
2023/01/08 18:14:03;;;;;;;;;;;;;;;;;;5022048;28;19921;-82
2023/01/08 18:16:29;;;;;;;;;;;;;;;;;;5022259;28;19949;-82
2023/01/08 18:18:54;;;;;;;;;;;;;;;;;;5022319;28;19898;-82
2023/01/08 18:57:43;;;;;;;;;;;;;;;;;;5513164;23;19952;-82
2023/01/08 19:05:22;;;;;;;;;;;;;;;;;;5576085;23;19916;-83
2023/01/08 19:12:59;;;;;;;;;;;;;;;;;;5579945;23;20448;-79
2023/01/08 19:15:25;;;;;;;;;;;;;;;;;;5014712;28;19909;-80
2023/01/08 19:17:51;;;;;;;;;;;;;;;;;;4997589;28;19898;-79
2023/01/08 19:20:17;;;;;;;;;;;;;;;;;;4997620;28;19924;-79